sensor_id;sensor_type;location;lat;lon;timestamp;temperature;humidity
36280;DHT22;22317;47.936;12.742;2023-05-18T00:00:07;7.60;60.60
36280;DHT22;22317;47.936;12.742;2023-05-18T00:02:36;7.70;60.80
36280;DHT22;22317;47.936;12.742;2023-05-18T00:05:02;7.70;60.70
36280;DHT22;22317;47.936;12.742;2023-05-18T00:07:29;7.70;60.70
36280;DHT22;22317;47.936;12.742;2023-05-18T00:09:59;7.70;60.80
36280;DHT22;22317;47.936;12.742;2023-05-18T00:12:25;7.70;61.40
36280;DHT22;22317;47.936;12.742;2023-05-18T00:14:51;7.70;60.60
36280;DHT22;22317;47.936;12.742;2023-05-18T00:17:17;7.70;60.50
36280;DHT22;22317;47.936;12.742;2023-05-18T00:19:44;7.70;60.60
36280;DHT22;22317;47.936;12.742;2023-05-18T00:22:11;7.70;60.60
36280;DHT22;22317;47.936;12.742;2023-05-18T00:24:45;7.70;60.60
36280;DHT22;22317;47.936;12.742;2023-05-18T00:27:12;7.70;60.70
36280;DHT22;22317;47.936;12.742;2023-05-18T00:29:38;7.70;60.60
36280;DHT22;22317;47.936;12.742;2023-05-18T00:32:05;7.70;60.40
36280;DHT22;22317;47.936;12.742;2023-05-18T00:34:31;7.60;61.10
36280;DHT22;22317;47.936;12.742;2023-05-18T00:36:56;7.60;60.50
36280;DHT22;22317;47.936;12.742;2023-05-18T00:39:22;7.60;60.60
36280;DHT22;22317;47.936;12.742;2023-05-18T00:41:48;7.60;60.60
36280;DHT22;22317;47.936;12.742;2023-05-18T00:44:14;7.60;60.60
36280;DHT22;22317;47.936;12.742;2023-05-18T00:46:40;7.60;60.60
36280;DHT22;22317;47.936;12.742;2023-05-18T00:49:09;7.60;60.70
36280;DHT22;22317;47.936;12.742;2023-05-18T00:51:35;7.60;60.80
36280;DHT22;22317;47.936;12.742;2023-05-18T00:54:01;7.60;60.80
36280;DHT22;22317;47.936;12.742;2023-05-18T00:56:28;7.60;60.90
36280;DHT22;22317;47.936;12.742;2023-05-18T00:59:00;7.60;60.80
36280;DHT22;22317;47.936;12.742;2023-05-18T01:01:31;7.60;60.80
36280;DHT22;22317;47.936;12.742;2023-05-18T01:04:02;7.60;60.90
36280;DHT22;22317;47.936;12.742;2023-05-18T01:06:30;7.60;60.80
36280;DHT22;22317;47.936;12.742;2023-05-18T01:09:05;7.60;60.90
36280;DHT22;22317;47.936;12.742;2023-05-18T01:14:32;7.60;61.00
36280;DHT22;22317;47.936;12.742;2023-05-18T01:17:15;7.60;61.00
36280;DHT22;22317;47.936;12.742;2023-05-18T01:27:47;7.50;61.10
36280;DHT22;22317;47.936;12.742;2023-05-18T01:30:15;7.50;61.10
36280;DHT22;22317;47.936;12.742;2023-05-18T01:32:47;7.50;61.10
36280;DHT22;22317;47.936;12.742;2023-05-18T01:35:12;7.50;61.20
36280;DHT22;22317;47.936;12.742;2023-05-18T01:37:38;7.50;61.20
36280;DHT22;22317;47.936;12.742;2023-05-18T01:40:06;7.50;61.20
36280;DHT22;22317;47.936;12.742;2023-05-18T01:42:37;7.50;61.30
36280;DHT22;22317;47.936;12.742;2023-05-18T01:45:10;7.50;61.30
36280;DHT22;22317;47.936;12.742;2023-05-18T01:47:39;7.50;61.30
36280;DHT22;22317;47.936;12.742;2023-05-18T01:50:14;7.50;61.20
36280;DHT22;22317;47.936;12.742;2023-05-18T01:52:47;7.50;61.20
36280;DHT22;22317;47.936;12.742;2023-05-18T01:55:17;7.50;61.20
36280;DHT22;22317;47.936;12.742;2023-05-18T01:57:45;7.50;61.20
36280;DHT22;22317;47.936;12.742;2023-05-18T02:00:15;7.50;61.30
36280;DHT22;22317;47.936;12.742;2023-05-18T02:02:42;7.50;61.30
36280;DHT22;22317;47.936;12.742;2023-05-18T02:05:08;7.50;61.30
36280;DHT22;22317;47.936;12.742;2023-05-18T02:07:38;7.40;61.30
36280;DHT22;22317;47.936;12.742;2023-05-18T02:10:05;7.40;61.40
36280;DHT22;22317;47.936;12.742;2023-05-18T02:12:31;7.40;61.40
36280;DHT22;22317;47.936;12.742;2023-05-18T02:14:57;7.40;61.50
36280;DHT22;22317;47.936;12.742;2023-05-18T02:17:25;7.40;61.40
36280;DHT22;22317;47.936;12.742;2023-05-18T02:19:51;7.40;61.40
36280;DHT22;22317;47.936;12.742;2023-05-18T02:22:17;7.40;61.50
36280;DHT22;22317;47.936;12.742;2023-05-18T02:24:43;7.40;61.50
36280;DHT22;22317;47.936;12.742;2023-05-18T02:27:10;7.40;61.60
36280;DHT22;22317;47.936;12.742;2023-05-18T02:29:36;7.40;61.60
36280;DHT22;22317;47.936;12.742;2023-05-18T02:32:02;7.40;61.70
36280;DHT22;22317;47.936;12.742;2023-05-18T02:34:28;7.40;61.70
36280;DHT22;22317;47.936;12.742;2023-05-18T02:36:56;7.40;61.70
36280;DHT22;22317;47.936;12.742;2023-05-18T02:39:22;7.40;61.70
36280;DHT22;22317;47.936;12.742;2023-05-18T02:41:48;7.40;61.70
36280;DHT22;22317;47.936;12.742;2023-05-18T02:44:13;7.40;61.70
36280;DHT22;22317;47.936;12.742;2023-05-18T02:46:39;7.40;61.70
36280;DHT22;22317;47.936;12.742;2023-05-18T02:49:05;7.40;61.80
36280;DHT22;22317;47.936;12.742;2023-05-18T02:51:31;7.40;61.90
36280;DHT22;22317;47.936;12.742;2023-05-18T02:53:58;7.40;61.90
36280;DHT22;22317;47.936;12.742;2023-05-18T02:56:24;7.40;61.90
36280;DHT22;22317;47.936;12.742;2023-05-18T02:58:57;7.40;61.90
36280;DHT22;22317;47.936;12.742;2023-05-18T03:01:33;7.40;62.00
36280;DHT22;22317;47.936;12.742;2023-05-18T03:04:01;7.40;61.90
36280;DHT22;22317;47.936;12.742;2023-05-18T03:06:28;7.40;62.00
36280;DHT22;22317;47.936;12.742;2023-05-18T03:08:55;7.40;62.00
36280;DHT22;22317;47.936;12.742;2023-05-18T03:11:26;7.40;62.10
36280;DHT22;22317;47.936;12.742;2023-05-18T03:13:52;7.40;62.00
36280;DHT22;22317;47.936;12.742;2023-05-18T03:16:19;7.40;62.10
36280;DHT22;22317;47.936;12.742;2023-05-18T03:18:46;7.40;62.10
36280;DHT22;22317;47.936;12.742;2023-05-18T03:21:12;7.40;62.10
36280;DHT22;22317;47.936;12.742;2023-05-18T03:23:38;7.40;62.10
36280;DHT22;22317;47.936;12.742;2023-05-18T03:26:05;7.40;62.10
36280;DHT22;22317;47.936;12.742;2023-05-18T03:28:37;7.40;62.10
36280;DHT22;22317;47.936;12.742;2023-05-18T03:31:03;7.40;62.10
36280;DHT22;22317;47.936;12.742;2023-05-18T03:33:30;7.40;62.10
36280;DHT22;22317;47.936;12.742;2023-05-18T03:35:57;7.40;62.00
36280;DHT22;22317;47.936;12.742;2023-05-18T03:38:24;7.40;62.10
36280;DHT22;22317;47.936;12.742;2023-05-18T03:40:57;7.30;61.90
36280;DHT22;22317;47.936;12.742;2023-05-18T03:43:23;7.30;62.00
36280;DHT22;22317;47.936;12.742;2023-05-18T03:45:51;7.30;62.10
36280;DHT22;22317;47.936;12.742;2023-05-18T03:48:17;7.30;62.20
36280;DHT22;22317;47.936;12.742;2023-05-18T03:50:43;7.30;62.10
36280;DHT22;22317;47.936;12.742;2023-05-18T03:53:09;7.20;62.10
36280;DHT22;22317;47.936;12.742;2023-05-18T03:55:35;7.30;62.10
36280;DHT22;22317;47.936;12.742;2023-05-18T03:58:01;7.30;62.00
36280;DHT22;22317;47.936;12.742;2023-05-18T04:00:27;7.30;62.00
36280;DHT22;22317;47.936;12.742;2023-05-18T04:02:54;7.20;62.10
36280;DHT22;22317;47.936;12.742;2023-05-18T04:05:23;7.20;62.20
36280;DHT22;22317;47.936;12.742;2023-05-18T04:07:50;7.20;62.20
36280;DHT22;22317;47.936;12.742;2023-05-18T04:10:16;7.20;62.20
36280;DHT22;22317;47.936;12.742;2023-05-18T04:12:44;7.20;62.30
36280;DHT22;22317;47.936;12.742;2023-05-18T04:15:10;7.30;62.30
36280;DHT22;22317;47.936;12.742;2023-05-18T04:17:39;7.30;62.30
36280;DHT22;22317;47.936;12.742;2023-05-18T04:20:13;7.30;62.30
36280;DHT22;22317;47.936;12.742;2023-05-18T04:22:43;7.30;62.40
36280;DHT22;22317;47.936;12.742;2023-05-18T04:25:12;7.30;62.50
36280;DHT22;22317;47.936;12.742;2023-05-18T04:27:39;7.40;62.50
36280;DHT22;22317;47.936;12.742;2023-05-18T04:30:11;7.40;62.60
36280;DHT22;22317;47.936;12.742;2023-05-18T04:32:39;7.40;62.60
36280;DHT22;22317;47.936;12.742;2023-05-18T04:35:08;7.40;62.60
36280;DHT22;22317;47.936;12.742;2023-05-18T04:37:35;7.50;62.60
36280;DHT22;22317;47.936;12.742;2023-05-18T04:40:06;7.50;62.50
36280;DHT22;22317;47.936;12.742;2023-05-18T04:42:33;7.50;62.60
36280;DHT22;22317;47.936;12.742;2023-05-18T04:45:00;7.50;62.40
36280;DHT22;22317;47.936;12.742;2023-05-18T04:47:29;7.60;62.40
36280;DHT22;22317;47.936;12.742;2023-05-18T04:49:55;7.60;63.10
36280;DHT22;22317;47.936;12.742;2023-05-18T04:52:20;7.70;62.50
36280;DHT22;22317;47.936;12.742;2023-05-18T04:54:46;7.70;62.40
36280;DHT22;22317;47.936;12.742;2023-05-18T04:57:13;7.70;62.40
36280;DHT22;22317;47.936;12.742;2023-05-18T04:59:39;7.70;62.30
36280;DHT22;22317;47.936;12.742;2023-05-18T05:02:06;7.80;62.30
36280;DHT22;22317;47.936;12.742;2023-05-18T05:04:32;7.80;62.20
36280;DHT22;22317;47.936;12.742;2023-05-18T05:06:57;7.80;62.20
36280;DHT22;22317;47.936;12.742;2023-05-18T05:09:23;7.90;62.10
36280;DHT22;22317;47.936;12.742;2023-05-18T05:11:49;7.90;62.00
36280;DHT22;22317;47.936;12.742;2023-05-18T05:14:15;7.90;61.90
36280;DHT22;22317;47.936;12.742;2023-05-18T05:16:41;8.00;61.90
36280;DHT22;22317;47.936;12.742;2023-05-18T05:19:07;8.00;61.80
36280;DHT22;22317;47.936;12.742;2023-05-18T05:21:33;8.00;61.70
36280;DHT22;22317;47.936;12.742;2023-05-18T05:24:00;8.00;61.70
36280;DHT22;22317;47.936;12.742;2023-05-18T05:26:29;8.10;61.70
36280;DHT22;22317;47.936;12.742;2023-05-18T05:28:55;8.10;61.60
36280;DHT22;22317;47.936;12.742;2023-05-18T05:31:22;8.10;61.60
36280;DHT22;22317;47.936;12.742;2023-05-18T05:33:47;8.20;61.60
36280;DHT22;22317;47.936;12.742;2023-05-18T05:36:13;8.20;61.60
36280;DHT22;22317;47.936;12.742;2023-05-18T05:38:39;8.30;61.50
36280;DHT22;22317;47.936;12.742;2023-05-18T05:41:05;8.30;61.40
36280;DHT22;22317;47.936;12.742;2023-05-18T05:43:31;8.40;61.30
36280;DHT22;22317;47.936;12.742;2023-05-18T05:45:57;8.50;61.30
36280;DHT22;22317;47.936;12.742;2023-05-18T05:48:23;8.50;61.20
36280;DHT22;22317;47.936;12.742;2023-05-18T05:50:49;8.60;61.00
36280;DHT22;22317;47.936;12.742;2023-05-18T05:53:15;8.60;61.00
36280;DHT22;22317;47.936;12.742;2023-05-18T05:55:44;8.70;61.10
36280;DHT22;22317;47.936;12.742;2023-05-18T05:58:12;8.70;60.90
36280;DHT22;22317;47.936;12.742;2023-05-18T06:00:40;8.80;60.90
36280;DHT22;22317;47.936;12.742;2023-05-18T06:03:07;8.90;60.90
36280;DHT22;22317;47.936;12.742;2023-05-18T06:05:35;9.00;60.80
36280;DHT22;22317;47.936;12.742;2023-05-18T06:08:02;9.00;60.70
36280;DHT22;22317;47.936;12.742;2023-05-18T06:10:29;9.10;60.70
36280;DHT22;22317;47.936;12.742;2023-05-18T06:12:56;9.30;60.50
36280;DHT22;22317;47.936;12.742;2023-05-18T06:15:27;7.50;59.30
36280;DHT22;22317;47.936;12.742;2023-05-18T06:17:54;9.40;59.90
36280;DHT22;22317;47.936;12.742;2023-05-18T06:20:20;9.40;59.70
36280;DHT22;22317;47.936;12.742;2023-05-18T06:22:47;9.50;59.30
36280;DHT22;22317;47.936;12.742;2023-05-18T06:25:21;9.50;59.00
36280;DHT22;22317;47.936;12.742;2023-05-18T06:28:16;9.50;58.90
36280;DHT22;22317;47.936;12.742;2023-05-18T06:30:48;9.60;59.00
36280;DHT22;22317;47.936;12.742;2023-05-18T06:33:19;9.60;58.70
36280;DHT22;22317;47.936;12.742;2023-05-18T06:35:45;9.70;58.60
36280;DHT22;22317;47.936;12.742;2023-05-18T06:38:11;9.70;58.40
36280;DHT22;22317;47.936;12.742;2023-05-18T06:40:37;9.80;58.20
36280;DHT22;22317;47.936;12.742;2023-05-18T06:43:03;9.90;58.10
36280;DHT22;22317;47.936;12.742;2023-05-18T06:45:42;9.90;57.80
36280;DHT22;22317;47.936;12.742;2023-05-18T06:48:12;10.00;57.80
36280;DHT22;22317;47.936;12.742;2023-05-18T06:50:38;10.10;57.60
36280;DHT22;22317;47.936;12.742;2023-05-18T06:53:04;10.20;57.30
36280;DHT22;22317;47.936;12.742;2023-05-18T06:55:31;10.30;56.80
36280;DHT22;22317;47.936;12.742;2023-05-18T06:57:57;12.10;57.30
36280;DHT22;22317;47.936;12.742;2023-05-18T07:00:23;10.30;56.30
36280;DHT22;22317;47.936;12.742;2023-05-18T07:02:49;10.30;56.10
36280;DHT22;22317;47.936;12.742;2023-05-18T07:05:15;10.30;55.90
36280;DHT22;22317;47.936;12.742;2023-05-18T07:07:42;10.30;55.50
36280;DHT22;22317;47.936;12.742;2023-05-18T07:10:08;10.30;55.20
36280;DHT22;22317;47.936;12.742;2023-05-18T07:12:33;10.20;55.10
36280;DHT22;22317;47.936;12.742;2023-05-18T07:14:59;10.20;54.90
36280;DHT22;22317;47.936;12.742;2023-05-18T07:17:25;10.30;55.00
36280;DHT22;22317;47.936;12.742;2023-05-18T07:19:51;10.30;54.80
36280;DHT22;22317;47.936;12.742;2023-05-18T07:22:16;10.20;54.70
36280;DHT22;22317;47.936;12.742;2023-05-18T07:24:42;10.30;54.70
36280;DHT22;22317;47.936;12.742;2023-05-18T07:27:08;10.40;54.90
36280;DHT22;22317;47.936;12.742;2023-05-18T07:29:34;10.50;54.90
36280;DHT22;22317;47.936;12.742;2023-05-18T07:31:59;10.60;54.70
36280;DHT22;22317;47.936;12.742;2023-05-18T07:34:25;10.80;54.50
36280;DHT22;22317;47.936;12.742;2023-05-18T07:36:52;10.90;54.30
36280;DHT22;22317;47.936;12.742;2023-05-18T07:39:18;11.00;53.70
36280;DHT22;22317;47.936;12.742;2023-05-18T07:41:45;11.10;53.40
36280;DHT22;22317;47.936;12.742;2023-05-18T07:44:12;11.20;53.20
36280;DHT22;22317;47.936;12.742;2023-05-18T07:46:38;11.30;52.90
36280;DHT22;22317;47.936;12.742;2023-05-18T07:49:04;11.40;52.90
36280;DHT22;22317;47.936;12.742;2023-05-18T07:51:30;11.50;52.80
36280;DHT22;22317;47.936;12.742;2023-05-18T07:53:56;11.60;52.80
36280;DHT22;22317;47.936;12.742;2023-05-18T07:56:22;11.80;52.60
36280;DHT22;22317;47.936;12.742;2023-05-18T07:58:48;11.90;52.40
36280;DHT22;22317;47.936;12.742;2023-05-18T08:01:14;12.00;52.30
36280;DHT22;22317;47.936;12.742;2023-05-18T08:03:41;12.10;52.10
36280;DHT22;22317;47.936;12.742;2023-05-18T08:06:07;12.30;51.80
36280;DHT22;22317;47.936;12.742;2023-05-18T08:08:32;12.50;51.40
36280;DHT22;22317;47.936;12.742;2023-05-18T08:11:03;12.60;51.10
36280;DHT22;22317;47.936;12.742;2023-05-18T08:13:29;12.70;50.70
36280;DHT22;22317;47.936;12.742;2023-05-18T08:15:55;12.80;50.10
36280;DHT22;22317;47.936;12.742;2023-05-18T08:18:20;12.90;49.60
36280;DHT22;22317;47.936;12.742;2023-05-18T08:20:47;13.10;49.50
36280;DHT22;22317;47.936;12.742;2023-05-18T08:23:14;13.20;49.40
36280;DHT22;22317;47.936;12.742;2023-05-18T08:25:40;13.30;49.40
36280;DHT22;22317;47.936;12.742;2023-05-18T08:28:06;13.50;49.00
36280;DHT22;22317;47.936;12.742;2023-05-18T08:30:32;13.50;48.80
36280;DHT22;22317;47.936;12.742;2023-05-18T08:32:57;13.60;48.50
36280;DHT22;22317;47.936;12.742;2023-05-18T08:35:23;13.60;48.30
36280;DHT22;22317;47.936;12.742;2023-05-18T08:37:49;13.80;48.20
36280;DHT22;22317;47.936;12.742;2023-05-18T08:40:15;13.70;47.70
36280;DHT22;22317;47.936;12.742;2023-05-18T08:45:17;13.80;47.40
36280;DHT22;22317;47.936;12.742;2023-05-18T08:47:45;13.80;47.20
36280;DHT22;22317;47.936;12.742;2023-05-18T08:50:12;13.90;47.60
36280;DHT22;22317;47.936;12.742;2023-05-18T08:52:46;13.90;46.70
36280;DHT22;22317;47.936;12.742;2023-05-18T08:55:13;13.80;46.10
36280;DHT22;22317;47.936;12.742;2023-05-18T08:57:42;13.80;46.30
36280;DHT22;22317;47.936;12.742;2023-05-18T09:00:11;13.80;46.40
36280;DHT22;22317;47.936;12.742;2023-05-18T09:02:37;13.80;46.20
36280;DHT22;22317;47.936;12.742;2023-05-18T09:05:05;13.70;45.80
36280;DHT22;22317;47.936;12.742;2023-05-18T09:07:31;13.70;45.80
36280;DHT22;22317;47.936;12.742;2023-05-18T09:09:57;13.70;45.80
36280;DHT22;22317;47.936;12.742;2023-05-18T09:12:25;13.70;45.70
36280;DHT22;22317;47.936;12.742;2023-05-18T09:14:53;13.80;45.90
36280;DHT22;22317;47.936;12.742;2023-05-18T09:17:19;13.80;45.80
36280;DHT22;22317;47.936;12.742;2023-05-18T09:19:47;13.90;46.00
36280;DHT22;22317;47.936;12.742;2023-05-18T09:22:13;14.20;46.40
36280;DHT22;22317;47.936;12.742;2023-05-18T09:24:40;14.40;46.20
36280;DHT22;22317;47.936;12.742;2023-05-18T09:27:06;14.60;46.10
36280;DHT22;22317;47.936;12.742;2023-05-18T09:29:32;14.70;45.90
36280;DHT22;22317;47.936;12.742;2023-05-18T09:32:02;14.90;45.60
36280;DHT22;22317;47.936;12.742;2023-05-18T09:34:39;14.90;45.10
36280;DHT22;22317;47.936;12.742;2023-05-18T09:37:05;15.00;44.90
36280;DHT22;22317;47.936;12.742;2023-05-18T09:39:31;15.20;45.10
36280;DHT22;22317;47.936;12.742;2023-05-18T09:41:57;15.30;44.80
36280;DHT22;22317;47.936;12.742;2023-05-18T09:44:35;15.30;44.70
36280;DHT22;22317;47.936;12.742;2023-05-18T09:47:07;15.30;44.10
36280;DHT22;22317;47.936;12.742;2023-05-18T09:49:34;15.20;43.70
36280;DHT22;22317;47.936;12.742;2023-05-18T09:52:00;15.20;43.70
36280;DHT22;22317;47.936;12.742;2023-05-18T09:54:26;15.10;43.50
36280;DHT22;22317;47.936;12.742;2023-05-18T09:56:51;15.10;43.50
36280;DHT22;22317;47.936;12.742;2023-05-18T09:59:17;15.20;43.90
36280;DHT22;22317;47.936;12.742;2023-05-18T10:02:00;15.40;43.80
36280;DHT22;22317;47.936;12.742;2023-05-18T10:04:41;15.50;43.60
36280;DHT22;22317;47.936;12.742;2023-05-18T10:07:14;15.60;43.60
36280;DHT22;22317;47.936;12.742;2023-05-18T10:09:42;15.70;43.60
36280;DHT22;22317;47.936;12.742;2023-05-18T10:12:15;15.70;43.50
36280;DHT22;22317;47.936;12.742;2023-05-18T10:14:45;15.70;43.20
36280;DHT22;22317;47.936;12.742;2023-05-18T10:17:12;15.80;43.30
36280;DHT22;22317;47.936;12.742;2023-05-18T10:19:39;15.80;43.20
36280;DHT22;22317;47.936;12.742;2023-05-18T10:22:07;15.80;43.00
36280;DHT22;22317;47.936;12.742;2023-05-18T10:24:35;15.90;43.10
36280;DHT22;22317;47.936;12.742;2023-05-18T10:27:07;16.00;43.00
36280;DHT22;22317;47.936;12.742;2023-05-18T10:29:37;16.00;42.50
36280;DHT22;22317;47.936;12.742;2023-05-18T10:32:03;16.00;42.20
36280;DHT22;22317;47.936;12.742;2023-05-18T10:34:31;15.90;42.00
36280;DHT22;22317;47.936;12.742;2023-05-18T10:36:59;15.90;42.10
36280;DHT22;22317;47.936;12.742;2023-05-18T10:39:25;15.90;42.80
36280;DHT22;22317;47.936;12.742;2023-05-18T10:41:54;15.90;42.30
36280;DHT22;22317;47.936;12.742;2023-05-18T10:44:23;16.00;42.00
36280;DHT22;22317;47.936;12.742;2023-05-18T10:46:49;16.00;42.50
36280;DHT22;22317;47.936;12.742;2023-05-18T10:49:20;16.00;41.80
36280;DHT22;22317;47.936;12.742;2023-05-18T10:51:52;16.00;41.70
36280;DHT22;22317;47.936;12.742;2023-05-18T10:54:20;16.00;41.60
36280;DHT22;22317;47.936;12.742;2023-05-18T10:56:51;16.00;41.70
36280;DHT22;22317;47.936;12.742;2023-05-18T10:59:17;16.10;41.50
36280;DHT22;22317;47.936;12.742;2023-05-18T11:01:44;16.10;41.40
36280;DHT22;22317;47.936;12.742;2023-05-18T11:04:11;16.10;41.40
36280;DHT22;22317;47.936;12.742;2023-05-18T11:06:37;16.10;41.40
36280;DHT22;22317;47.936;12.742;2023-05-18T11:09:04;16.10;41.60
36280;DHT22;22317;47.936;12.742;2023-05-18T11:11:52;16.30;41.60
36280;DHT22;22317;47.936;12.742;2023-05-18T11:14:30;16.40;41.50
36280;DHT22;22317;47.936;12.742;2023-05-18T11:17:19;16.50;41.20
36280;DHT22;22317;47.936;12.742;2023-05-18T11:28:01;16.70;40.60
36280;DHT22;22317;47.936;12.742;2023-05-18T11:30:49;16.80;40.60
36280;DHT22;22317;47.936;12.742;2023-05-18T11:33:28;16.80;40.40
36280;DHT22;22317;47.936;12.742;2023-05-18T11:36:13;16.90;40.60
36280;DHT22;22317;47.936;12.742;2023-05-18T11:38:50;17.10;40.60
36280;DHT22;22317;47.936;12.742;2023-05-18T11:41:38;17.20;40.20
36280;DHT22;22317;47.936;12.742;2023-05-18T11:46:54;17.30;40.00
36280;DHT22;22317;47.936;12.742;2023-05-18T11:49:29;17.40;39.80
36280;DHT22;22317;47.936;12.742;2023-05-18T11:54:43;17.60;39.80
36280;DHT22;22317;47.936;12.742;2023-05-18T11:57:10;17.70;39.70
36280;DHT22;22317;47.936;12.742;2023-05-18T11:59:39;17.70;39.50
36280;DHT22;22317;47.936;12.742;2023-05-18T12:02:06;17.80;39.20
36280;DHT22;22317;47.936;12.742;2023-05-18T12:04:33;17.90;39.20
36280;DHT22;22317;47.936;12.742;2023-05-18T12:07:04;18.00;39.30
36280;DHT22;22317;47.936;12.742;2023-05-18T12:09:30;18.20;39.20
36280;DHT22;22317;47.936;12.742;2023-05-18T12:11:56;18.20;38.90
36280;DHT22;22317;47.936;12.742;2023-05-18T12:14:23;18.30;38.60
36280;DHT22;22317;47.936;12.742;2023-05-18T12:16:49;18.30;38.30
36280;DHT22;22317;47.936;12.742;2023-05-18T12:19:16;18.20;38.00
36280;DHT22;22317;47.936;12.742;2023-05-18T12:21:44;18.10;38.10
36280;DHT22;22317;47.936;12.742;2023-05-18T12:24:10;18.00;37.80
36280;DHT22;22317;47.936;12.742;2023-05-18T12:26:36;17.70;37.30
36280;DHT22;22317;47.936;12.742;2023-05-18T12:29:03;17.40;37.40
36280;DHT22;22317;47.936;12.742;2023-05-18T12:31:28;17.20;37.80
36280;DHT22;22317;47.936;12.742;2023-05-18T12:33:55;17.10;38.50
36280;DHT22;22317;47.936;12.742;2023-05-18T12:36:21;17.10;38.90
36280;DHT22;22317;47.936;12.742;2023-05-18T12:38:49;17.10;39.20
36280;DHT22;22317;47.936;12.742;2023-05-18T12:41:24;17.10;39.20
36280;DHT22;22317;47.936;12.742;2023-05-18T12:43:51;17.10;39.10
36280;DHT22;22317;47.936;12.742;2023-05-18T12:46:21;17.10;39.30
36280;DHT22;22317;47.936;12.742;2023-05-18T12:48:55;17.00;39.10
36280;DHT22;22317;47.936;12.742;2023-05-18T12:51:22;17.00;39.00
36280;DHT22;22317;47.936;12.742;2023-05-18T12:53:48;17.10;39.40
36280;DHT22;22317;47.936;12.742;2023-05-18T12:56:15;17.10;39.50
36280;DHT22;22317;47.936;12.742;2023-05-18T12:58:56;17.30;39.50
36280;DHT22;22317;47.936;12.742;2023-05-18T13:01:23;17.40;39.40
36280;DHT22;22317;47.936;12.742;2023-05-18T13:03:54;17.60;39.40
36280;DHT22;22317;47.936;12.742;2023-05-18T13:06:21;17.70;39.20
36280;DHT22;22317;47.936;12.742;2023-05-18T13:08:47;17.80;38.70
36280;DHT22;22317;47.936;12.742;2023-05-18T13:11:12;17.80;38.20
36280;DHT22;22317;47.936;12.742;2023-05-18T13:16:25;17.70;37.40
36280;DHT22;22317;47.936;12.742;2023-05-18T13:18:56;17.70;37.90
36280;DHT22;22317;47.936;12.742;2023-05-18T13:21:21;17.70;38.00
36280;DHT22;22317;47.936;12.742;2023-05-18T13:23:47;17.80;38.20
36280;DHT22;22317;47.936;12.742;2023-05-18T13:26:13;18.00;38.40
36280;DHT22;22317;47.936;12.742;2023-05-18T13:28:39;18.10;38.20
36280;DHT22;22317;47.936;12.742;2023-05-18T13:31:05;18.10;37.80
36280;DHT22;22317;47.936;12.742;2023-05-18T13:33:31;18.00;37.30
36280;DHT22;22317;47.936;12.742;2023-05-18T13:35:57;18.00;37.30
36280;DHT22;22317;47.936;12.742;2023-05-18T13:38:23;17.90;38.10
36280;DHT22;22317;47.936;12.742;2023-05-18T13:40:49;17.90;37.20
36280;DHT22;22317;47.936;12.742;2023-05-18T13:43:15;17.70;37.00
36280;DHT22;22317;47.936;12.742;2023-05-18T13:45:41;17.50;36.90
36280;DHT22;22317;47.936;12.742;2023-05-18T13:48:07;17.30;36.80
36280;DHT22;22317;47.936;12.742;2023-05-18T13:50:34;17.00;36.90
36280;DHT22;22317;47.936;12.742;2023-05-18T13:53:00;16.80;37.10
36280;DHT22;22317;47.936;12.742;2023-05-18T13:55:26;16.60;37.20
36280;DHT22;22317;47.936;12.742;2023-05-18T13:57:52;16.40;37.30
36280;DHT22;22317;47.936;12.742;2023-05-18T14:00:18;16.20;37.50
36280;DHT22;22317;47.936;12.742;2023-05-18T14:02:45;16.00;37.70
36280;DHT22;22317;47.936;12.742;2023-05-18T14:05:11;15.80;37.80
36280;DHT22;22317;47.936;12.742;2023-05-18T14:07:39;15.70;38.20
36280;DHT22;22317;47.936;12.742;2023-05-18T14:10:06;15.50;38.40
36280;DHT22;22317;47.936;12.742;2023-05-18T14:12:32;15.40;38.60
36280;DHT22;22317;47.936;12.742;2023-05-18T14:14:58;15.20;38.80
36280;DHT22;22317;47.936;12.742;2023-05-18T14:17:24;15.00;39.30
36280;DHT22;22317;47.936;12.742;2023-05-18T14:19:52;15.00;39.60
36280;DHT22;22317;47.936;12.742;2023-05-18T14:22:17;14.80;39.80
36280;DHT22;22317;47.936;12.742;2023-05-18T14:24:43;14.80;40.00
36280;DHT22;22317;47.936;12.742;2023-05-18T14:27:09;14.60;40.00
36280;DHT22;22317;47.936;12.742;2023-05-18T14:29:35;14.60;40.30
36280;DHT22;22317;47.936;12.742;2023-05-18T14:32:01;14.50;40.50
36280;DHT22;22317;47.936;12.742;2023-05-18T14:34:27;14.40;40.60
36280;DHT22;22317;47.936;12.742;2023-05-18T14:36:53;14.40;40.70
36280;DHT22;22317;47.936;12.742;2023-05-18T14:39:18;14.40;40.80
36280;DHT22;22317;47.936;12.742;2023-05-18T14:41:44;14.40;40.90
36280;DHT22;22317;47.936;12.742;2023-05-18T14:44:10;14.30;41.00
36280;DHT22;22317;47.936;12.742;2023-05-18T14:46:38;14.20;41.20
36280;DHT22;22317;47.936;12.742;2023-05-18T14:49:04;14.20;41.40
36280;DHT22;22317;47.936;12.742;2023-05-18T14:51:30;14.10;41.30
36280;DHT22;22317;47.936;12.742;2023-05-18T14:53:56;14.10;41.50
36280;DHT22;22317;47.936;12.742;2023-05-18T14:56:22;14.10;42.30
36280;DHT22;22317;47.936;12.742;2023-05-18T14:58:47;14.00;41.70
36280;DHT22;22317;47.936;12.742;2023-05-18T15:01:13;14.00;41.90
36280;DHT22;22317;47.936;12.742;2023-05-18T15:03:39;14.00;42.00
36280;DHT22;22317;47.936;12.742;2023-05-18T15:06:05;13.90;42.00
36280;DHT22;22317;47.936;12.742;2023-05-18T15:08:31;13.90;42.20
36280;DHT22;22317;47.936;12.742;2023-05-18T15:10:56;13.80;42.30
36280;DHT22;22317;47.936;12.742;2023-05-18T15:13:22;13.80;42.20
36280;DHT22;22317;47.936;12.742;2023-05-18T15:15:48;13.70;42.10
36280;DHT22;22317;47.936;12.742;2023-05-18T15:18:14;13.60;42.20
36280;DHT22;22317;47.936;12.742;2023-05-18T15:20:40;13.60;42.50
36280;DHT22;22317;47.936;12.742;2023-05-18T15:23:09;13.50;42.60
36280;DHT22;22317;47.936;12.742;2023-05-18T15:25:36;13.50;42.80
36280;DHT22;22317;47.936;12.742;2023-05-18T15:28:02;13.40;42.90
36280;DHT22;22317;47.936;12.742;2023-05-18T15:30:27;13.40;43.00
36280;DHT22;22317;47.936;12.742;2023-05-18T15:32:57;13.40;43.10
36280;DHT22;22317;47.936;12.742;2023-05-18T15:35:23;13.30;43.10
36280;DHT22;22317;47.936;12.742;2023-05-18T15:37:49;13.20;43.20
36280;DHT22;22317;47.936;12.742;2023-05-18T15:40:16;13.10;43.10
36280;DHT22;22317;47.936;12.742;2023-05-18T15:42:42;13.00;43.10
36280;DHT22;22317;47.936;12.742;2023-05-18T15:45:08;12.90;43.30
36280;DHT22;22317;47.936;12.742;2023-05-18T15:47:34;12.80;43.50
36280;DHT22;22317;47.936;12.742;2023-05-18T15:50:00;12.70;43.70
36280;DHT22;22317;47.936;12.742;2023-05-18T15:52:25;12.70;43.90
36280;DHT22;22317;47.936;12.742;2023-05-18T15:54:51;12.60;44.10